HTMW

Mwanza Airport

Mwanza, Tanzania
METAR HTMW 201200Z 30010KT 9999 FEW023 FEW024CB BKN110 24/18 Q1015 NOSIG
Observed Flight Rules
Oct-20 @ 12:00 UTC (51 minutes ago) Visual Flight Rules
Wind Visibility Clouds
300° at 10 knots 10,000+ meters
  • Few at 2,300' AGL
  • Few at 2,400' AGL
  • Broken at 11,000' AGL
Temperatures Readings
Current 24°C / 75°F
Dewpoint 18°C / 64°F
Humidity 69%
Altimeter 29.97" Hg
Pressure 1015 hPa
Elevation 1140
METAR HTMW 201200Z 30010KT 9999 FEW023 FEW024CB BKN110 24/18 Q1015 NOSIG
Observed Flight Rules
Oct-20 @ 12:00 UTC
(51 minutes ago)
VFR
Wind Visibility
300° at 10 knots 10,000+ meters
Clouds
  • Few at 2,300' AGL
  • Few at 2,400' AGL
  • Broken at 11,000' AGL
Temperature Dewpoint
24°C / 75°F 18°C / 64°F
Humidity Altimeter Pressure
69% 29.97" Hg 1015 hPa